Time;durP1;ratioP1;P1;durP2;ratioP2;P2;SDS_P1;SDS_P2;PMS_P1;PMS_P2;Temp;Humidity;BMP_temperature;BMP_pressure;BME280_temperature;BME280_humidity;BME280_pressure;Samples;Min_cycle;Max_cycle;Signal;HPM_P1;HPM_P2
2024/01/19 00:02:07;;;;;;;18.80;11.10;;;;;-4.40;93390.00;;;;7398495;19;20145;-75
2024/01/19 00:04:34;;;;;;;25.87;11.93;;;;;-4.40;93390.00;;;;7397416;19;20135;-77
2024/01/19 00:07:09;;;;;;;27.80;12.07;;;;;-4.30;93396.00;;;;7397638;19;20139;-76
2024/01/19 00:09:37;;;;;;;21.30;11.13;;;;;-4.40;93391.00;;;;7398537;19;20121;-76
2024/01/19 00:12:05;;;;;;;27.80;12.67;;;;;-4.30;93394.00;;;;7397271;19;20141;-76
2024/01/19 00:14:40;;;;;;;25.97;11.73;;;;;-4.20;93412.00;;;;7397583;19;20663;-76
2024/01/19 00:17:08;;;;;;;21.77;11.77;;;;;-4.10;93415.00;;;;7400095;19;20140;-76
2024/01/19 00:19:43;;;;;;;18.00;11.13;;;;;-4.20;93418.00;;;;7405595;19;20142;-74
2024/01/19 00:22:20;;;;;;;24.87;11.10;;;;;-4.20;93426.00;;;;7404370;19;20133;-74
2024/01/19 00:24:54;;;;;;;18.67;11.10;;;;;-4.20;93431.00;;;;7405254;19;20121;-74
2024/01/19 00:27:29;;;;;;;20.63;11.13;;;;;-4.10;93432.00;;;;7404721;19;20128;-74
2024/01/19 00:29:58;;;;;;;24.43;10.37;;;;;-4.10;93436.00;;;;7405058;19;20154;-74
2024/01/19 00:32:31;;;;;;;20.47;10.87;;;;;-4.10;93440.00;;;;7403402;19;20146;-74
2024/01/19 00:34:59;;;;;;;19.27;10.60;;;;;-4.20;93440.00;;;;7404643;19;20596;-74
2024/01/19 00:37:34;;;;;;;24.20;10.97;;;;;-4.20;93439.00;;;;7403559;19;20137;-75
2024/01/19 00:40:11;;;;;;;21.27;12.03;;;;;-4.10;93445.00;;;;7403357;19;20147;-75
2024/01/19 00:42:45;;;;;;;21.73;12.13;;;;;-4.20;93447.00;;;;7402499;19;20238;-74
2024/01/19 00:45:13;;;;;;;23.37;12.43;;;;;-4.00;93453.00;;;;7404510;19;20153;-74
2024/01/19 00:47:54;;;;;;;21.07;12.20;;;;;-4.10;93451.00;;;;7402032;19;20646;-74
2024/01/19 00:50:29;;;;;;;23.43;12.83;;;;;-4.10;93453.00;;;;7404469;19;20531;-75
2024/01/19 00:52:57;;;;;;;26.07;12.77;;;;;-4.10;93457.00;;;;7402776;19;20503;-74
2024/01/19 00:55:30;;;;;;;23.67;13.00;;;;;-4.20;93462.00;;;;7395276;19;20203;-75
2024/01/19 00:58:05;;;;;;;27.93;12.47;;;;;-4.10;93463.00;;;;7399041;19;20566;-75
2024/01/19 01:00:38;;;;;;;26.27;12.63;;;;;-4.10;93470.00;;;;7401129;19;20509;-74
2024/01/19 01:03:24;;;;;;;23.07;11.93;;;;;-4.00;93465.00;;;;7402576;19;20509;-74
2024/01/19 01:05:59;;;;;;;28.43;12.43;;;;;-4.10;93468.00;;;;7401744;19;20494;-74
2024/01/19 01:08:35;;;;;;;24.90;11.97;;;;;-4.10;93477.00;;;;7403648;19;20483;-74
2024/01/19 01:11:09;;;;;;;21.27;11.90;;;;;-4.20;93481.00;;;;7403972;19;20132;-75
2024/01/19 01:13:38;;;;;;;27.87;12.43;;;;;-4.00;93486.00;;;;7403341;19;20137;-74
2024/01/19 01:16:11;;;;;;;25.00;11.83;;;;;-4.10;93497.00;;;;7402403;19;20179;-75
2024/01/19 01:18:40;;;;;;;23.37;12.27;;;;;-4.00;93503.00;;;;7397456;19;20156;-74
2024/01/19 01:21:14;;;;;;;27.27;12.30;;;;;-3.90;93512.00;;;;7403181;19;20156;-75
2024/01/19 01:23:41;;;;;;;27.03;12.97;;;;;-4.00;93515.00;;;;7402703;19;20139;-74
2024/01/19 01:26:16;;;;;;;24.73;11.60;;;;;-4.10;93521.00;;;;7403623;19;20141;-73
2024/01/19 01:28:43;;;;;;;21.13;12.23;;;;;-3.90;93516.00;;;;7396777;19;20178;-74
2024/01/19 01:31:18;;;;;;;27.17;12.67;;;;;-3.90;93531.00;;;;7401302;19;20146;-77
2024/01/19 01:33:46;;;;;;;24.27;12.27;;;;;-3.80;93522.00;;;;7400663;19;20144;-77
2024/01/19 01:36:14;;;;;;;25.50;12.27;;;;;-3.70;93529.00;;;;7402488;19;20139;-76
2024/01/19 01:38:49;;;;;;;24.03;12.70;;;;;-3.80;93531.00;;;;7400682;19;20541;-77
2024/01/19 01:41:24;;;;;;;23.90;12.60;;;;;-4.00;93528.00;;;;7402586;19;20618;-78
2024/01/19 01:43:57;;;;;;;23.57;12.10;;;;;-4.10;93536.00;;;;7399572;19;20179;-77
2024/01/19 01:46:38;;;;;;;25.50;13.27;;;;;-4.20;93547.00;;;;7402213;19;20155;-76
2024/01/19 01:49:16;;;;;;;24.27;12.30;;;;;-4.10;93558.00;;;;7401230;19;20144;-76
2024/01/19 01:51:46;;;;;;;28.83;13.13;;;;;-4.30;93561.00;;;;7403344;19;20632;-77
2024/01/19 01:54:21;;;;;;;31.03;12.60;;;;;-4.20;93562.00;;;;7401756;19;20130;-76
2024/01/19 01:56:49;;;;;;;26.30;13.23;;;;;-4.10;93563.00;;;;7402047;19;20133;-76
2024/01/19 01:59:24;;;;;;;27.40;12.80;;;;;-4.20;93569.00;;;;7399081;19;20131;-76
2024/01/19 02:01:51;;;;;;;21.77;13.43;;;;;-4.10;93563.00;;;;7401658;19;20462;-77
2024/01/19 02:04:28;;;;;;;25.43;13.77;;;;;-4.00;93574.00;;;;7400596;19;20172;-75
2024/01/19 02:07:02;;;;;;;28.83;13.00;;;;;-4.10;93574.00;;;;7400255;19;20152;-76
2024/01/19 02:09:43;;;;;;;24.77;13.13;;;;;-3.90;93573.00;;;;7402506;19;20133;-76
2024/01/19 02:12:12;;;;;;;23.17;12.97;;;;;-3.90;93576.00;;;;7396520;19;20512;-75
2024/01/19 02:14:47;;;;;;;25.10;12.83;;;;;-4.10;93573.00;;;;7401492;19;20203;-77
2024/01/19 02:17:23;;;;;;;27.57;13.83;;;;;-4.20;93579.00;;;;7401488;19;20617;-76
2024/01/19 02:19:58;;;;;;;26.90;12.90;;;;;-4.10;93572.00;;;;7399786;19;20128;-76
2024/01/19 02:22:32;;;;;;;26.87;12.77;;;;;-4.20;93575.00;;;;7401589;19;20470;-76
2024/01/19 02:25:06;;;;;;;28.00;13.73;;;;;-4.20;93571.00;;;;7399495;19;20621;-76
2024/01/19 02:27:34;;;;;;;24.57;12.43;;;;;-4.20;93582.00;;;;7399891;19;20717;-76
2024/01/19 02:30:10;;;;;;;25.73;13.17;;;;;-4.20;93583.00;;;;7399725;19;20144;-76
2024/01/19 02:32:38;;;;;;;23.60;12.27;;;;;-4.20;93584.00;;;;7401177;19;20613;-76
2024/01/19 02:35:12;;;;;;;21.80;11.77;;;;;-4.20;93581.00;;;;7399194;19;20503;-76
2024/01/19 02:37:47;;;;;;;23.63;12.17;;;;;-4.00;93585.00;;;;7400801;19;20604;-76
2024/01/19 02:40:21;;;;;;;20.30;11.97;;;;;-4.10;93585.00;;;;7398617;19;20143;-75
2024/01/19 02:42:48;;;;;;;22.03;11.97;;;;;-4.00;93592.00;;;;7399600;19;20725;-75
2024/01/19 02:45:22;;;;;;;26.57;11.90;;;;;-4.10;93593.00;;;;7400373;19;20199;-75
2024/01/19 02:48:03;;;;;;;18.43;11.87;;;;;-4.10;93593.00;;;;7398642;19;20148;-75
2024/01/19 02:50:38;;;;;;;21.87;11.73;;;;;-4.00;93593.00;;;;7400751;19;20636;-76
2024/01/19 02:53:11;;;;;;;26.23;12.50;;;;;-4.10;93594.00;;;;7398246;19;20978;-75
2024/01/19 02:55:41;;;;;;;21.30;11.87;;;;;-4.20;93599.00;;;;7401346;19;20124;-75
2024/01/19 02:58:17;;;;;;;25.90;11.77;;;;;-4.40;93598.00;;;;7400836;19;20150;-75
2024/01/19 03:00:51;;;;;;;23.17;11.40;;;;;-4.50;93600.00;;;;7400993;19;20150;-75
2024/01/19 03:03:26;;;;;;;20.33;11.80;;;;;-4.60;93611.00;;;;7399581;19;20158;-75
2024/01/19 03:06:00;;;;;;;17.30;11.07;;;;;-4.70;93601.00;;;;7400532;19;20152;-74
2024/01/19 03:08:28;;;;;;;22.60;11.23;;;;;-4.70;93605.00;;;;7399525;19;20608;-75
2024/01/19 03:11:04;;;;;;;22.73;12.30;;;;;-4.80;93617.00;;;;7397705;19;20138;-74
2024/01/19 03:13:32;;;;;;;19.77;11.03;;;;;-4.80;93609.00;;;;7399548;19;20239;-74
2024/01/19 03:16:06;;;;;;;21.27;11.57;;;;;-4.80;93611.00;;;;7401870;19;20145;-74
2024/01/19 03:18:40;;;;;;;18.20;10.60;;;;;-4.70;93608.00;;;;7399553;19;20167;-75
2024/01/19 03:21:15;;;;;;;20.87;11.10;;;;;-4.70;93614.00;;;;7400301;19;20136;-74
2024/01/19 03:23:49;;;;;;;23.87;10.67;;;;;-4.70;93612.00;;;;7401238;19;20534;-76
2024/01/19 03:26:24;;;;;;;16.60;10.43;;;;;-4.60;93615.00;;;;7400146;19;20478;-75
2024/01/19 03:28:51;;;;;;;22.63;10.90;;;;;-4.60;93617.00;;;;7401245;19;20151;-75
2024/01/19 03:31:26;;;;;;;24.07;11.27;;;;;-4.60;93614.00;;;;7399817;19;20144;-76
2024/01/19 03:33:54;;;;;;;18.50;10.57;;;;;-4.70;93614.00;;;;7401351;19;20131;-76
2024/01/19 03:36:29;;;;;;;21.40;11.10;;;;;-4.60;93611.00;;;;7402585;19;20637;-75
2024/01/19 03:39:04;;;;;;;23.17;11.70;;;;;-4.50;93609.00;;;;7399690;19;20642;-75
2024/01/19 03:41:38;;;;;;;21.23;10.20;;;;;-4.60;93611.00;;;;7400431;19;20201;-75
2024/01/19 03:44:13;;;;;;;21.37;10.40;;;;;-4.70;93619.00;;;;7399276;19;20144;-74
2024/01/19 03:46:40;;;;;;;20.87;10.77;;;;;-4.70;93626.00;;;;7398973;19;20657;-75
2024/01/19 03:49:14;;;;;;;17.30;10.63;;;;;-4.60;93625.00;;;;7400451;19;20635;-76
2024/01/19 03:52:07;;;;;;;20.87;11.23;;;;;-4.60;93623.00;;;;7402998;19;20156;-76
2024/01/19 03:54:41;;;;;;;22.63;11.60;;;;;-4.70;93623.00;;;;7407148;19;20192;-77
2024/01/19 03:57:09;;;;;;;24.37;10.97;;;;;-4.80;93621.00;;;;7408529;19;20596;-77
2024/01/19 03:59:44;;;;;;;22.13;11.37;;;;;-4.90;93624.00;;;;7405142;19;20592;-75
2024/01/19 04:02:11;;;;;;;23.43;11.03;;;;;-5.00;93625.00;;;;7405308;19;20618;-76
2024/01/19 04:04:46;;;;;;;20.87;11.37;;;;;-5.00;93616.00;;;;7405934;19;20234;-76
2024/01/19 04:07:15;;;;;;;20.37;11.50;;;;;-4.90;93629.00;;;;7406113;19;20154;-75
2024/01/19 04:09:49;;;;;;;20.77;11.13;;;;;-5.00;93629.00;;;;7407249;19;20532;-75
2024/01/19 04:12:18;;;;;;;18.53;10.93;;;;;-5.00;93630.00;;;;7404640;19;20596;-76
2024/01/19 04:14:53;;;;;;;19.73;11.37;;;;;-5.10;93621.00;;;;7406105;19;20608;-75
2024/01/19 04:17:21;;;;;;;20.70;11.43;;;;;-5.10;93620.00;;;;7407091;19;20131;-76
2024/01/19 04:19:56;;;;;;;21.20;11.73;;;;;-5.00;93625.00;;;;7404043;19;20210;-76
2024/01/19 04:22:25;;;;;;;25.83;12.83;;;;;-5.10;93616.00;;;;7407416;19;20616;-76
2024/01/19 04:24:59;;;;;;;22.57;13.10;;;;;-5.20;93624.00;;;;7406347;19;20214;-75
2024/01/19 04:27:35;;;;;;;30.83;13.17;;;;;-5.20;93633.00;;;;7405873;19;20162;-75
2024/01/19 04:30:03;;;;;;;25.20;12.53;;;;;-5.30;93628.00;;;;7405996;19;20509;-76
2024/01/19 04:32:37;;;;;;;24.00;12.60;;;;;-5.20;93631.00;;;;7407663;19;20129;-77
2024/01/19 04:35:06;;;;;;;30.53;13.23;;;;;-5.40;93637.00;;;;7405082;19;20488;-75
2024/01/19 04:37:40;;;;;;;23.10;13.63;;;;;-5.50;93638.00;;;;7405814;19;20150;-76
2024/01/19 04:40:15;;;;;;;25.60;13.77;;;;;-5.40;93647.00;;;;7403052;19;20195;-76
2024/01/19 04:42:48;;;;;;;25.77;13.93;;;;;-5.30;93637.00;;;;7405000;19;20160;-75
2024/01/19 04:45:17;;;;;;;22.70;13.83;;;;;-5.50;93651.00;;;;7404954;19;20128;-76
2024/01/19 04:47:44;;;;;;;31.80;15.07;;;;;-5.50;93651.00;;;;7403011;19;20181;-77
2024/01/19 04:50:19;;;;;;;25.17;14.27;;;;;-5.40;93642.00;;;;7404706;19;20149;-77
2024/01/19 04:52:46;;;;;;;28.43;15.30;;;;;-5.60;93654.00;;;;7404547;19;20125;-76
2024/01/19 04:55:21;;;;;;;32.33;14.93;;;;;-5.60;93660.00;;;;7405229;19;20129;-76
2024/01/19 04:57:48;;;;;;;30.23;13.90;;;;;-5.60;93673.00;;;;7405895;19;20142;-75
2024/01/19 05:00:22;;;;;;;26.23;13.33;;;;;-5.70;93666.00;;;;7403374;19;20596;-76
2024/01/19 05:03:00;;;;;;;30.60;14.53;;;;;-5.90;93673.00;;;;7403499;19;20157;-75
2024/01/19 05:05:35;;;;;;;24.90;13.50;;;;;-5.90;93681.00;;;;7404897;19;20157;-76
2024/01/19 05:08:03;;;;;;;27.53;14.17;;;;;-5.90;93678.00;;;;7403801;19;20157;-76
2024/01/19 05:10:38;;;;;;;23.73;13.73;;;;;-5.80;93682.00;;;;7400976;19;20129;-75
2024/01/19 05:13:13;;;;;;;31.67;14.67;;;;;-5.90;93687.00;;;;7404790;19;20133;-76
2024/01/19 05:15:42;;;;;;;33.17;15.13;;;;;-5.80;93688.00;;;;7402246;19;20156;-76
2024/01/19 05:18:17;;;;;;;27.23;15.83;;;;;-6.00;93698.00;;;;7403700;19;20137;-76
2024/01/19 05:20:53;;;;;;;27.27;15.27;;;;;-5.80;93708.00;;;;7402428;19;20589;-76
2024/01/19 05:23:29;;;;;;;27.23;15.20;;;;;-5.70;93703.00;;;;7402608;19;20145;-76
2024/01/19 05:26:08;;;;;;;28.57;15.70;;;;;-5.60;93708.00;;;;7402381;19;20148;-76
2024/01/19 05:28:43;;;;;;;25.47;13.03;;;;;-5.70;93714.00;;;;7402508;19;20160;-77
2024/01/19 05:31:17;;;;;;;27.57;13.30;;;;;-5.60;93714.00;;;;7400690;19;20149;-77
2024/01/19 05:33:50;;;;;;;24.07;12.97;;;;;-5.40;93716.00;;;;7402169;19;20141;-77
2024/01/19 05:36:25;;;;;;;23.57;12.83;;;;;-5.40;93728.00;;;;7401964;19;20135;-77
2024/01/19 05:38:52;;;;;;;24.77;13.70;;;;;-5.50;93728.00;;;;7401390;19;20612;-76
2024/01/19 05:41:49;;;;;;;26.73;13.43;;;;;-5.70;93721.00;;;;7399937;19;20149;-76
2024/01/19 05:44:23;;;;;;;23.73;12.37;;;;;-5.80;93733.00;;;;7400199;19;20150;-76
2024/01/19 05:47:04;;;;;;;30.93;13.57;;;;;-5.80;93731.00;;;;7401905;19;20150;-76
2024/01/19 05:49:32;;;;;;;28.50;13.23;;;;;-5.70;93744.00;;;;7402224;19;20612;-76
2024/01/19 05:52:06;;;;;;;30.27;14.90;;;;;-5.60;93742.00;;;;7403339;19;20155;-76
2024/01/19 05:54:34;;;;;;;33.60;13.67;;;;;-5.50;93747.00;;;;7400514;19;20155;-77
2024/01/19 05:57:09;;;;;;;24.70;13.00;;;;;-5.40;93739.00;;;;7394823;19;20179;-78
2024/01/19 05:59:40;;;;;;;22.37;12.73;;;;;-5.50;93752.00;;;;7393357;19;20143;-77
2024/01/19 06:02:09;;;;;;;25.20;13.33;;;;;-5.60;93761.00;;;;7392236;19;20154;-78
2024/01/19 06:04:46;;;;;;;24.93;12.40;;;;;-5.40;93763.00;;;;7393435;19;20232;-78
2024/01/19 06:07:14;;;;;;;25.10;13.17;;;;;-5.20;93771.00;;;;7391277;19;20500;-77
2024/01/19 06:09:47;;;;;;;25.73;13.10;;;;;-5.40;93770.00;;;;7392019;19;22923;-78
2024/01/19 06:12:21;;;;;;;24.30;13.10;;;;;-5.60;93785.00;;;;7387585;19;20159;-78
2024/01/19 06:14:49;;;;;;;25.50;13.40;;;;;-5.80;93780.00;;;;7389902;19;20156;-76
2024/01/19 06:17:24;;;;;;;24.87;12.73;;;;;-5.80;93789.00;;;;7390604;19;20173;-76
2024/01/19 06:19:52;;;;;;;28.33;14.07;;;;;-5.80;93793.00;;;;7390828;19;20593;-78
2024/01/19 06:22:19;;;;;;;27.87;12.97;;;;;-5.80;93798.00;;;;7390859;19;20133;-76
2024/01/19 06:24:55;;;;;;;25.63;12.90;;;;;-5.70;93792.00;;;;7392806;19;20521;-77
2024/01/19 06:27:23;;;;;;;24.43;13.00;;;;;-5.60;93788.00;;;;7391701;19;20126;-76
2024/01/19 06:29:57;;;;;;;25.80;11.70;;;;;-5.80;93799.00;;;;7390869;19;20199;-76
2024/01/19 06:32:25;;;;;;;24.13;11.63;;;;;-5.80;93804.00;;;;7389667;19;20130;-76
2024/01/19 06:35:00;;;;;;;21.87;11.37;;;;;-5.70;93794.00;;;;7389976;19;20667;-76
2024/01/19 06:37:29;;;;;;;25.97;12.43;;;;;-5.80;93815.00;;;;7389506;19;20130;-77
2024/01/19 06:40:03;;;;;;;21.80;11.37;;;;;-5.80;93810.00;;;;7389628;19;20161;-76
2024/01/19 06:42:31;;;;;;;22.13;11.50;;;;;-6.00;93817.00;;;;7389517;19;20498;-78
2024/01/19 06:45:06;;;;;;;27.07;12.27;;;;;-6.00;93813.00;;;;7389656;19;20151;-76
2024/01/19 06:47:40;;;;;;;26.43;12.10;;;;;-5.80;93822.00;;;;7388920;19;20177;-77
2024/01/19 06:50:15;;;;;;;20.80;11.67;;;;;-5.90;93825.00;;;;7390373;19;20149;-77
2024/01/19 06:52:43;;;;;;;29.60;12.60;;;;;-5.80;93837.00;;;;7389169;19;20147;-77
2024/01/19 06:55:17;;;;;;;23.20;12.47;;;;;-5.60;93843.00;;;;7391688;19;20132;-78
2024/01/19 06:57:44;;;;;;;29.63;13.27;;;;;-5.70;93847.00;;;;7390049;19;20150;-77
2024/01/19 07:00:13;;;;;;;26.73;12.93;;;;;-5.80;93855.00;;;;7391353;19;20182;-76
2024/01/19 07:02:48;;;;;;;23.53;12.87;;;;;-5.80;93856.00;;;;7390225;19;20500;-77
2024/01/19 07:05:22;;;;;;;26.43;11.90;;;;;-6.00;93855.00;;;;7387973;19;20161;-76
2024/01/19 07:07:58;;;;;;;24.60;11.77;;;;;-6.10;93872.00;;;;7390809;19;20136;-77
2024/01/19 07:10:32;;;;;;;27.33;12.53;;;;;-6.10;93877.00;;;;7390457;19;20549;-77
2024/01/19 07:13:07;;;;;;;23.67;12.53;;;;;-6.50;93875.00;;;;7388640;19;20131;-78
2024/01/19 07:15:35;;;;;;;22.30;12.33;;;;;-6.60;93867.00;;;;7388715;19;20150;-76
2024/01/19 07:18:10;;;;;;;22.27;11.40;;;;;-6.70;93878.00;;;;7388902;19;21585;-77
2024/01/19 07:20:45;;;;;;;26.03;11.33;;;;;-6.70;93884.00;;;;7388728;19;20144;-75
2024/01/19 07:23:20;;;;;;;24.63;11.07;;;;;-6.40;93889.00;;;;7389693;19;20199;-75
2024/01/19 07:25:58;;;;;;;19.80;10.70;;;;;-6.20;93891.00;;;;7385757;19;20212;-76
2024/01/19 07:28:32;;;;;;;24.50;12.40;;;;;-6.00;93899.00;;;;7387563;19;20612;-75
2024/01/19 07:31:00;;;;;;;20.70;11.03;;;;;-5.90;93899.00;;;;7388581;19;20173;-75
2024/01/19 07:33:34;;;;;;;24.57;12.23;;;;;-5.90;93900.00;;;;7390921;19;20165;-77
2024/01/19 07:36:03;;;;;;;25.63;11.63;;;;;-5.80;93907.00;;;;7388940;19;20157;-75
2024/01/19 07:38:38;;;;;;;20.67;12.13;;;;;-5.50;93906.00;;;;7388363;19;20525;-76
2024/01/19 07:41:06;;;;;;;25.13;13.13;;;;;-5.40;93919.00;;;;7387452;19;20149;-76
2024/01/19 07:43:47;;;;;;;23.50;11.90;;;;;-5.50;93923.00;;;;7388814;19;20182;-75
2024/01/19 07:46:28;;;;;;;29.23;12.23;;;;;-5.40;93916.00;;;;7387484;19;20157;-76
2024/01/19 07:48:56;;;;;;;29.27;11.00;;;;;-5.40;93919.00;;;;7388780;19;20140;-75
2024/01/19 07:51:34;;;;;;;18.63;10.90;;;;;-5.20;93916.00;;;;7391811;19;20133;-75
2024/01/19 07:54:14;;;;;;;21.00;10.90;;;;;-5.10;93921.00;;;;7389014;19;20153;-75
2024/01/19 07:56:48;;;;;;;19.23;10.73;;;;;-5.20;93932.00;;;;7388050;19;20189;-76
2024/01/19 07:59:23;;;;;;;21.30;12.13;;;;;-5.10;93931.00;;;;7388784;19;20125;-76
2024/01/19 08:01:58;;;;;;;23.33;11.20;;;;;-4.90;93938.00;;;;7386028;19;20537;-76
2024/01/19 08:04:26;;;;;;;27.27;11.53;;;;;-5.00;93938.00;;;;7387725;19;20217;-75
2024/01/19 08:07:00;;;;;;;24.10;11.40;;;;;-4.80;93938.00;;;;7386455;19;20508;-76
2024/01/19 08:09:28;;;;;;;24.87;12.83;;;;;-4.10;93949.00;;;;7386951;19;20156;-76
2024/01/19 08:12:05;;;;;;;25.33;13.07;;;;;-3.40;93939.00;;;;7388602;19;20148;-75
2024/01/19 08:14:40;;;;;;;21.10;12.93;;;;;-2.90;93937.00;;;;7387595;19;20166;-75
2024/01/19 08:17:08;;;;;;;27.27;13.73;;;;;-2.40;93944.00;;;;7386168;19;20150;-74
2024/01/19 08:19:42;;;;;;;23.07;11.80;;;;;-2.40;93946.00;;;;7386448;19;20159;-75
2024/01/19 08:22:17;;;;;;;22.30;11.73;;;;;-2.10;93954.00;;;;7387706;19;20145;-75
2024/01/19 08:24:52;;;;;;;22.07;11.13;;;;;-1.60;93950.00;;;;7388331;19;20139;-76
2024/01/19 08:27:19;;;;;;;20.07;10.60;;;;;-0.90;93957.00;;;;7386873;19;20177;-75
2024/01/19 08:29:54;;;;;;;16.50;9.37;;;;;-0.90;93967.00;;;;7388441;19;20132;-76
2024/01/19 08:32:25;;;;;;;18.23;8.33;;;;;-0.60;93954.00;;;;7386037;19;20534;-77
2024/01/19 08:35:08;;;;;;;14.20;7.57;;;;;-0.70;93966.00;;;;7386197;19;20152;-75
2024/01/19 08:37:43;;;;;;;14.53;8.00;;;;;0.00;93961.00;;;;7388174;19;20172;-75
2024/01/19 08:40:12;;;;;;;9.47;6.63;;;;;0.00;93976.00;;;;7393680;19;20133;-77
2024/01/19 08:42:40;;;;;;;9.93;6.37;;;;;-0.80;93974.00;;;;7395144;19;20251;-76
2024/01/19 08:45:15;;;;;;;14.20;6.77;;;;;-0.30;93968.00;;;;7393229;19;20624;-77
2024/01/19 08:47:52;;;;;;;10.77;6.87;;;;;0.00;93990.00;;;;7392980;19;20187;-76
2024/01/19 08:50:28;;;;;;;12.00;7.43;;;;;-0.40;93975.00;;;;7392180;19;20137;-77
2024/01/19 08:52:56;;;;;;;13.00;7.20;;;;;0.50;93975.00;;;;7392579;19;20516;-75
2024/01/19 08:55:30;;;;;;;11.23;6.30;;;;;-0.20;93984.00;;;;7393617;19;20152;-78
2024/01/19 08:58:04;;;;;;;10.80;6.67;;;;;-0.40;93978.00;;;;7393204;19;20149;-76
2024/01/19 09:00:38;;;;;;;18.03;7.00;;;;;-0.10;93992.00;;;;7393015;19;20140;-77
2024/01/19 09:03:12;;;;;;;10.07;6.33;;;;;-0.30;93993.00;;;;7393841;19;20156;-76
2024/01/19 09:05:47;;;;;;;12.10;6.60;;;;;-0.30;93994.00;;;;7393474;19;20176;-76
2024/01/19 09:08:15;;;;;;;12.43;7.40;;;;;-0.20;93998.00;;;;7391889;19;20152;-76
2024/01/19 09:10:50;;;;;;;15.33;8.00;;;;;0.30;94007.00;;;;7394558;19;20151;-77
2024/01/19 09:13:24;;;;;;;11.27;7.60;;;;;1.30;94010.00;;;;7394297;19;20504;-77
2024/01/19 09:15:59;;;;;;;12.47;7.43;;;;;1.00;94010.00;;;;7394797;19;20145;-77
2024/01/19 09:18:36;;;;;;;12.23;7.43;;;;;0.80;94017.00;;;;7393510;19;20140;-75
2024/01/19 09:21:18;;;;;;;12.27;7.37;;;;;1.40;94034.00;;;;7393081;19;20231;-75
2024/01/19 09:23:53;;;;;;;13.53;7.20;;;;;1.50;94054.00;;;;7392934;19;20144;-78
2024/01/19 09:26:28;;;;;;;15.67;7.40;;;;;1.10;94045.00;;;;7392753;19;20490;-75
2024/01/19 09:29:03;;;;;;;9.63;7.47;;;;;0.80;94051.00;;;;7394004;19;20498;-76
2024/01/19 09:31:45;;;;;;;10.47;6.77;;;;;0.30;94049.00;;;;7391783;19;20911;-76
2024/01/19 09:34:19;;;;;;;9.10;7.27;;;;;1.80;94053.00;;;;7392139;19;20514;-76
2024/01/19 09:36:47;;;;;;;10.73;6.67;;;;;1.70;94059.00;;;;7392261;19;20121;-76
2024/01/19 09:39:14;;;;;;;10.63;6.70;;;;;2.00;94063.00;;;;7392690;19;20203;-76
2024/01/19 09:42:03;;;;;;;10.13;6.67;;;;;2.70;94067.00;;;;7391889;19;20144;-76
2024/01/19 09:44:39;;;;;;;14.23;6.27;;;;;2.00;94075.00;;;;7391214;19;20169;-77
2024/01/19 09:47:17;;;;;;;10.07;6.33;;;;;2.50;94068.00;;;;7391001;19;20692;-76
2024/01/19 09:50:05;;;;;;;9.87;6.27;;;;;2.90;94074.00;;;;7389311;19;20152;-76
2024/01/19 09:52:50;;;;;;;9.33;6.83;;;;;3.00;94077.00;;;;7390927;19;20218;-75
2024/01/19 09:55:27;;;;;;;7.97;5.97;;;;;3.80;94081.00;;;;7390924;19;20212;-76
2024/01/19 09:58:02;;;;;;;8.93;6.10;;;;;3.10;94090.00;;;;7392687;19;20132;-76
2024/01/19 10:00:30;;;;;;;9.03;5.80;;;;;2.80;94093.00;;;;7390156;19;20129;-76
2024/01/19 10:03:09;;;;;;;6.77;5.23;;;;;4.00;94092.00;;;;7391397;19;20580;-75
2024/01/19 10:05:43;;;;;;;7.63;4.90;;;;;4.10;94102.00;;;;7390970;19;20525;-77
2024/01/19 10:08:15;;;;;;;7.53;5.60;;;;;3.00;94143.00;;;;7389951;19;20141;-76
2024/01/19 10:10:50;;;;;;;8.73;5.83;;;;;1.10;94150.00;;;;7390202;19;20152;-76
2024/01/19 10:13:18;;;;;;;7.97;5.40;;;;;0.20;94104.00;;;;7391192;19;20145;-77
2024/01/19 10:15:53;;;;;;;7.70;5.50;;;;;2.40;94126.00;;;;7391171;19;20144;-77
2024/01/19 10:18:22;;;;;;;7.30;5.47;;;;;4.10;94141.00;;;;7390652;19;20145;-75
2024/01/19 10:20:51;;;;;;;7.03;4.93;;;;;3.40;94115.00;;;;7390734;19;20501;-76
2024/01/19 10:23:26;;;;;;;9.47;5.23;;;;;2.40;94120.00;;;;7391926;19;20136;-78
2024/01/19 10:26:14;;;;;;;8.93;4.83;;;;;3.00;94122.00;;;;7395526;19;20155;-76
2024/01/19 10:28:49;;;;;;;8.60;5.53;;;;;4.30;94159.00;;;;7390754;19;20545;-76
2024/01/19 10:31:23;;;;;;;7.53;5.20;;;;;4.60;94126.00;;;;7390079;19;20147;-75
2024/01/19 10:33:58;;;;;;;6.97;5.07;;;;;4.90;94128.00;;;;7390505;19;20144;-75
2024/01/19 10:36:36;;;;;;;5.53;4.47;;;;;4.30;94156.00;;;;7390385;19;20144;-75
2024/01/19 10:39:20;;;;;;;6.70;4.90;;;;;3.60;94153.00;;;;7390790;19;20601;-76
2024/01/19 10:41:50;;;;;;;7.97;4.73;;;;;2.70;94135.00;;;;7392500;19;20133;-74
2024/01/19 10:44:25;;;;;;;8.27;4.90;;;;;3.00;94138.00;;;;7392102;19;20168;-75
2024/01/19 10:46:59;;;;;;;7.00;4.73;;;;;2.40;94129.00;;;;7389848;19;20169;-77
2024/01/19 10:49:42;;;;;;;7.07;4.90;;;;;3.60;94139.00;;;;7387087;19;20144;-79
2024/01/19 10:52:18;;;;;;;7.10;4.80;;;;;2.70;94144.00;;;;7386844;19;20143;-75
2024/01/19 10:54:49;;;;;;;8.43;4.27;;;;;4.20;94142.00;;;;7388902;19;20152;-76
2024/01/19 10:57:24;;;;;;;6.60;4.30;;;;;4.10;94165.00;;;;7385703;19;20498;-74
2024/01/19 10:59:52;;;;;;;6.43;4.17;;;;;2.00;94182.00;;;;7390389;19;20136;-75
2024/01/19 11:02:20;;;;;;;7.67;4.30;;;;;1.70;94154.00;;;;7391225;19;20212;-76
2024/01/19 11:04:55;;;;;;;6.47;4.53;;;;;2.00;94176.00;;;;7388987;19;20172;-75
2024/01/19 11:07:22;;;;;;;5.47;4.13;;;;;0.20;94136.00;;;;7389945;19;20604;-74
2024/01/19 11:09:59;;;;;;;6.03;4.07;;;;;3.00;94131.00;;;;7388872;19;20516;-75
2024/01/19 11:12:26;;;;;;;6.50;4.17;;;;;3.50;94123.00;;;;7388777;19;20192;-76
2024/01/19 11:15:02;;;;;;;6.90;4.53;;;;;3.60;94109.00;;;;7388379;19;20644;-75
2024/01/19 11:17:38;;;;;;;5.03;3.97;;;;;4.00;94134.00;;;;7389532;19;20129;-76
2024/01/19 11:20:15;;;;;;;6.37;4.40;;;;;4.10;94142.00;;;;7387605;19;20600;-77
2024/01/19 11:22:53;;;;;;;8.23;4.97;;;;;3.00;94176.00;;;;7389079;19;21406;-79
2024/01/19 11:25:40;;;;;;;5.93;4.33;;;;;1.90;94188.00;;;;7389532;19;20625;-78
2024/01/19 11:28:26;;;;;;;8.00;4.87;;;;;3.00;94150.00;;;;7389445;19;20165;-79
2024/01/19 11:31:15;;;;;;;6.67;4.27;;;;;3.10;94152.00;;;;7389544;19;20511;-78
2024/01/19 11:33:43;;;;;;;8.23;4.43;;;;;2.90;94147.00;;;;7391011;19;20511;-80
2024/01/19 11:36:41;;;;;;;7.00;4.70;;;;;2.00;94141.00;;;;7390414;19;20159;-79
2024/01/19 11:39:42;;;;;;;7.87;4.60;;;;;3.50;94146.00;;;;7388181;19;20149;-78
2024/01/19 11:42:39;;;;;;;6.07;4.60;;;;;3.80;94138.00;;;;7390728;19;20164;-79
2024/01/19 11:45:42;;;;;;;6.97;4.77;;;;;4.00;94140.00;;;;7390177;19;20149;-81
2024/01/19 11:48:45;;;;;;;6.00;4.00;;;;;4.40;94142.00;;;;7389671;19;20183;-80
2024/01/19 11:51:34;;;;;;;5.23;4.13;;;;;3.90;94140.00;;;;7391161;19;20609;-79
2024/01/19 11:54:05;;;;;;;7.57;4.43;;;;;3.80;94129.00;;;;7391975;19;20125;-79
2024/01/19 11:56:40;;;;;;;7.43;3.87;;;;;3.80;94146.00;;;;7391317;19;20523;-80
2024/01/19 11:59:08;;;;;;;6.73;4.30;;;;;3.60;94136.00;;;;7389932;19;20153;-80
2024/01/19 12:01:43;;;;;;;7.23;4.40;;;;;3.70;94148.00;;;;7389823;19;20140;-78
2024/01/19 12:04:14;;;;;;;5.73;3.93;;;;;3.90;94147.00;;;;7390470;19;20620;-78
2024/01/19 12:07:03;;;;;;;8.23;4.70;;;;;3.80;94198.00;;;;7390567;19;20505;-79
2024/01/19 12:09:31;;;;;;;6.83;4.17;;;;;1.40;94208.00;;;;7390436;19;20137;-79
2024/01/19 12:12:06;;;;;;;5.17;4.00;;;;;-0.10;94199.00;;;;7390936;19;20182;-80
2024/01/19 12:14:36;;;;;;;6.63;3.47;;;;;1.10;94166.00;;;;7394768;19;20168;-79
2024/01/19 12:17:12;;;;;;;6.63;3.90;;;;;2.40;94177.00;;;;7399222;19;20172;-80
2024/01/19 12:19:44;;;;;;;6.30;3.83;;;;;3.60;94164.00;;;;7399107;19;20140;-80
2024/01/19 12:22:22;;;;;;;5.50;3.83;;;;;3.70;94172.00;;;;7397121;19;20161;-79
2024/01/19 12:24:50;;;;;;;5.60;3.83;;;;;1.60;94190.00;;;;7396196;19;20162;-79
2024/01/19 12:27:26;;;;;;;6.83;3.87;;;;;2.30;94182.00;;;;7397232;19;20489;-80
2024/01/19 12:30:15;;;;;;;6.63;3.93;;;;;4.80;94184.00;;;;7396457;19;20165;-82
2024/01/19 12:32:50;;;;;;;5.33;3.80;;;;;4.40;94184.00;;;;7396965;19;20145;-81
2024/01/19 12:35:21;;;;;;;6.77;4.10;;;;;4.30;94176.00;;;;7395769;19;20588;-78
2024/01/19 12:37:55;;;;;;;6.80;3.57;;;;;5.60;94177.00;;;;7396651;19;20164;-77
2024/01/19 12:40:26;;;;;;;6.33;3.80;;;;;6.30;94213.00;;;;7395361;19;20164;-78